Time;durP1;ratioP1;P1;durP2;ratioP2;P2;SDS_P1;SDS_P2;PMS_P1;PMS_P2;Temp;Humidity;BMP_temperature;BMP_pressure;BME280_temperature;BME280_humidity;BME280_pressure;Samples;Min_cycle;Max_cycle;Signal;HPM_P1;HPM_P2
2022/09/25 00:01:20;;;;;;;12.13;2.03;;;;;;;13.32;83.52;101589.56;5041048;28;20483;-65
2022/09/25 00:03:46;;;;;;;11.00;2.17;;;;;;;13.33;83.82;101599.06;5037022;28;20534;-65
2022/09/25 00:06:13;;;;;;;6.20;1.90;;;;;;;13.31;84.16;101603.31;5036805;28;20435;-65
2022/09/25 00:08:39;;;;;;;7.07;1.80;;;;;;;13.33;83.99;101604.25;5036488;28;20025;-65
2022/09/25 00:11:11;;;;;;;7.25;1.95;;;;;;;13.30;83.86;101599.88;5044729;28;20040;-65
2022/09/25 00:13:39;;;;;;;7.38;1.90;;;;;;;13.27;83.65;101606.66;5035290;28;20022;-65
2022/09/25 00:16:05;;;;;;;7.32;2.05;;;;;;;13.30;83.70;101614.50;5036090;28;20040;-65
2022/09/25 00:21:16;;;;;;;6.50;1.92;;;;;;;13.23;84.19;101613.44;5037013;28;20524;-65
2022/09/25 00:23:43;;;;;;;5.60;2.60;;;;;;;13.23;84.71;101615.16;5037799;28;20053;-65
2022/09/25 00:26:10;;;;;;;8.48;2.10;;;;;;;13.21;84.35;101607.34;5037325;28;20025;-65
2022/09/25 00:28:39;;;;;;;9.25;1.80;;;;;;;13.19;84.51;101603.81;5036290;28;20036;-64
2022/09/25 00:31:06;;;;;;;7.20;2.00;;;;;;;13.20;84.42;101605.56;5033411;28;20033;-65
2022/09/25 00:33:32;;;;;;;8.95;2.00;;;;;;;13.19;84.51;101613.28;5038593;28;20028;-66
2022/09/25 00:36:06;;;;;;;10.00;2.42;;;;;;;13.16;84.97;101606.28;5033542;28;20037;-65
2022/09/25 00:38:34;;;;;;;7.68;2.47;;;;;;;13.12;85.28;101607.06;5039756;28;20475;-66
2022/09/25 00:41:00;;;;;;;6.00;2.10;;;;;;;13.14;84.70;101615.72;5038251;28;20468;-65
2022/09/25 00:43:39;;;;;;;8.90;1.90;;;;;;;13.19;84.78;101613.28;5032055;28;20844;-65
2022/09/25 00:46:23;;;;;;;10.15;2.05;;;;;;;13.15;84.76;101620.91;5035721;28;20434;-66
2022/09/25 00:49:00;;;;;;;9.20;2.40;;;;;;;13.11;84.51;101611.34;5037327;28;20047;-66
2022/09/25 00:51:43;;;;;;;7.00;1.90;;;;;;;13.13;84.74;101609.66;5031861;28;20021;-66
2022/09/25 00:54:16;;;;;;;10.40;2.03;;;;;;;13.07;84.80;101619.81;5036969;28;20108;-66
2022/09/25 00:56:45;;;;;;;10.25;2.40;;;;;;;13.05;84.54;101615.44;5034867;28;20029;-66
2022/09/25 00:59:17;;;;;;;6.00;2.03;;;;;;;13.10;84.50;101613.84;5039435;28;20051;-66
2022/09/25 01:01:43;;;;;;;8.45;2.45;;;;;;;13.04;84.72;101613.69;5033079;28;20052;-65
2022/09/25 01:04:11;;;;;;;10.15;2.08;;;;;;;13.06;84.38;101619.78;5036272;28;20036;-65
2022/09/25 01:06:37;;;;;;;9.85;2.20;;;;;;;13.01;84.35;101617.06;5032967;28;20029;-65
2022/09/25 01:09:03;;;;;;;9.02;2.28;;;;;;;13.01;84.37;101613.59;5043977;28;20032;-66
2022/09/25 01:11:29;;;;;;;12.02;3.42;;;;;;;12.99;84.23;101616.13;5041396;28;20037;-66
2022/09/25 01:13:58;;;;;;;5.38;2.10;;;;;;;13.00;84.42;101615.31;5033625;28;20085;-66
2022/09/25 01:16:49;;;;;;;8.60;2.30;;;;;;;13.03;84.24;101624.84;5034501;28;20074;-65
2022/09/25 01:19:57;;;;;;;7.10;2.20;;;;;;;13.06;84.36;101620.66;5037806;28;20033;-66
2022/09/25 01:22:39;;;;;;;9.48;2.05;;;;;;;13.00;84.17;101625.63;5025445;28;20128;-66
2022/09/25 01:25:33;;;;;;;8.65;2.40;;;;;;;13.00;84.40;101617.88;5033471;28;20033;-66
2022/09/25 01:28:28;;;;;;;9.27;2.13;;;;;;;13.00;84.06;101615.31;5033421;28;20637;-65
2022/09/25 01:31:00;;;;;;;9.77;2.30;;;;;;;12.93;83.95;101622.84;5036329;28;20056;-66
2022/09/25 01:33:41;;;;;;;10.98;2.97;;;;;;;12.91;83.87;101616.72;5019057;28;20086;-66
2022/09/25 01:36:18;;;;;;;8.23;2.00;;;;;;;12.92;84.03;101633.97;5019356;28;20539;-66
2022/09/25 01:38:52;;;;;;;6.10;1.98;;;;;;;12.86;83.47;101640.72;5036314;28;20179;-66
2022/09/25 01:41:17;;;;;;;12.90;2.45;;;;;;;12.83;83.61;101631.97;5034802;28;20082;-66
2022/09/25 01:43:45;;;;;;;6.85;2.13;;;;;;;12.79;83.26;101630.13;5036884;28;20036;-66
2022/09/25 01:46:15;;;;;;;6.68;2.25;;;;;;;12.74;84.19;101632.59;5035990;28;20524;-66
2022/09/25 01:48:46;;;;;;;7.50;2.13;;;;;;;12.73;83.83;101625.66;5033698;28;20024;-66
2022/09/25 01:51:29;;;;;;;8.23;2.15;;;;;;;12.73;84.00;101633.38;5038884;28;20103;-66
2022/09/25 01:53:58;;;;;;;8.25;2.10;;;;;;;12.67;83.48;101629.72;5033754;28;20496;-65
2022/09/25 01:56:30;;;;;;;;;;;;;;;12.89;83.27;101639.91;5036071;28;20116;-66
2022/09/25 01:59:18;;;;;;;7.90;2.00;;;;;;;12.70;83.22;101633.31;5035534;28;19924;-66
2022/09/25 02:01:44;;;;;;;7.78;1.77;;;;;;;12.65;83.19;101639.16;5035288;28;20665;-65
2022/09/25 02:04:21;;;;;;;6.72;1.67;;;;;;;12.62;83.54;101632.19;5035224;28;20427;-65
2022/09/25 02:06:49;;;;;;;6.90;1.77;;;;;;;12.58;83.23;101635.50;5030312;28;20056;-65
2022/09/25 02:09:24;;;;;;;7.57;1.83;;;;;;;12.58;82.88;101633.78;5037118;28;20036;-66
2022/09/25 02:11:55;;;;;;;7.68;1.85;;;;;;;12.58;83.09;101630.34;5043097;28;20028;-66
2022/09/25 02:14:47;;;;;;;8.02;2.40;;;;;;;12.58;83.36;101628.63;5034076;28;20021;-66
2022/09/25 02:20:30;;;;;;;5.35;1.70;;;;;;;12.49;83.37;101619.72;5027949;28;20051;-66
2022/09/25 02:22:52;;;;;;;6.00;1.80;;;;;;;12.44;83.58;101623.88;5043606;28;20738;-66
2022/09/25 02:25:36;;;;;;;12.27;2.00;;;;;;;12.49;83.50;101632.59;5034135;28;20526;-66
2022/09/25 02:28:02;;;;;;;6.60;1.88;;;;;;;12.38;83.31;101623.63;5035057;28;20123;-66
2022/09/25 02:30:27;;;;;;;9.25;1.85;;;;;;;12.27;83.54;101631.91;5032611;28;20120;-66
2022/09/25 02:32:53;;;;;;;6.47;1.80;;;;;;;12.38;83.46;101631.38;5037864;28;20361;-66
2022/09/25 02:35:18;;;;;;;6.15;1.75;;;;;;;12.31;83.24;101623.44;5037626;28;20037;-66
2022/09/25 02:37:43;;;;;;;7.22;1.90;;;;;;;12.30;83.66;101634.56;5043226;28;20041;-66
2022/09/25 02:40:10;;;;;;;9.07;1.80;;;;;;;12.27;83.54;101631.91;5039137;28;20163;-67
2022/09/25 02:42:51;;;;;;;5.70;1.70;;;;;;;12.31;83.83;101633.75;5035216;28;20112;-66
2022/09/25 02:45:31;;;;;;;6.93;1.70;;;;;;;12.33;83.84;101629.53;5040506;28;20035;-66
2022/09/25 02:47:59;;;;;;;6.53;1.92;;;;;;;12.23;83.75;101630.06;5035726;28;20122;-66
2022/09/25 02:51:03;;;;;;;9.30;2.00;;;;;;;12.30;83.75;101621.69;5041378;28;20163;-66
2022/09/25 02:53:35;;;;;;;8.93;1.92;;;;;;;12.20;83.51;101621.34;5037826;28;20033;-66
2022/09/25 02:56:10;;;;;;;6.03;1.75;;;;;;;12.15;83.51;101612.59;5039589;28;20049;-66
2022/09/25 02:58:45;;;;;;;6.65;2.20;;;;;;;12.14;83.65;101614.28;5026643;28;20059;-66
2022/09/25 03:01:17;;;;;;;4.43;2.03;;;;;;;12.14;83.93;101616.00;5042028;28;20517;-66
2022/09/25 03:03:45;;;;;;;4.47;1.70;;;;;;;12.08;83.91;101616.66;5041843;28;20036;-66
2022/09/25 03:06:11;;;;;;;6.93;1.98;;;;;;;12.08;83.95;101606.34;5043529;28;20095;-66
2022/09/25 03:08:41;;;;;;;9.63;2.20;;;;;;;12.07;83.97;101615.78;5045657;28;21024;-66
2022/09/25 03:11:15;;;;;;;6.68;1.90;;;;;;;12.03;83.81;101613.91;5052751;28;20036;-66
2022/09/25 03:13:42;;;;;;;7.30;2.30;;;;;;;11.95;84.14;101623.09;5026287;28;20029;-66
2022/09/25 03:16:12;;;;;;;7.40;2.05;;;;;;;12.04;84.43;101622.53;5048870;28;20074;-66
2022/09/25 03:18:38;;;;;;;4.25;2.30;;;;;;;11.92;84.37;101616.94;5045283;28;20017;-66
2022/09/25 03:21:04;;;;;;;6.90;2.15;;;;;;;11.93;84.63;101613.53;5042716;28;20033;-66
2022/09/25 03:23:31;;;;;;;7.28;1.90;;;;;;;11.95;84.56;101619.63;5030418;28;20037;-66
2022/09/25 03:25:56;;;;;;;7.20;2.42;;;;;;;11.87;84.83;101616.78;5042587;28;20032;-65
2022/09/25 03:28:22;;;;;;;11.70;2.85;;;;;;;11.88;84.81;101620.22;5047237;28;20024;-66
2022/09/25 03:31:09;;;;;;;7.00;2.30;;;;;;;11.90;85.12;101621.19;5035635;28;20085;-66
2022/09/25 03:33:40;;;;;;;7.88;2.53;;;;;;;11.89;84.98;101619.41;5044873;28;20028;-66
2022/09/25 03:36:20;;;;;;;7.65;2.47;;;;;;;11.92;84.97;101615.25;5044139;28;20035;-66
2022/09/25 03:38:49;;;;;;;7.95;2.55;;;;;;;11.75;84.74;101612.03;5042216;28;20048;-66
2022/09/25 03:41:19;;;;;;;7.88;2.78;;;;;;;11.82;84.61;101616.63;5043163;28;20582;-65
2022/09/25 03:43:46;;;;;;;7.50;2.47;;;;;;;11.79;85.03;101616.50;5041492;28;20086;-66
2022/09/25 03:46:13;;;;;;;4.95;2.42;;;;;;;11.76;84.55;101611.22;5038398;28;20499;-66
2022/09/25 03:48:39;;;;;;;6.40;2.50;;;;;;;11.76;84.37;101618.94;5042662;28;20158;-67
2022/09/25 03:51:06;;;;;;;10.52;2.58;;;;;;;11.70;84.86;101616.16;5040449;28;20120;-66
2022/09/25 03:53:32;;;;;;;6.72;3.08;;;;;;;11.68;84.98;101614.34;5039825;28;20033;-67
2022/09/25 03:56:06;;;;;;;7.05;3.17;;;;;;;11.73;85.85;101623.13;5019394;28;20036;-66
2022/09/25 03:58:33;;;;;;;7.38;2.85;;;;;;;11.68;85.27;101622.09;5046503;28;20029;-66
2022/09/25 04:01:00;;;;;;;6.45;2.70;;;;;;;11.61;84.82;101609.81;5043888;28;20408;-66
2022/09/25 04:03:28;;;;;;;7.93;2.83;;;;;;;11.63;84.98;101615.88;5042829;28;20030;-66
2022/09/25 04:05:58;;;;;;;10.18;3.03;;;;;;;11.61;85.38;101623.56;5045228;28;20078;-65
2022/09/25 04:08:26;;;;;;;6.95;3.10;;;;;;;11.64;85.00;101612.47;5044101;28;20111;-66
2022/09/25 04:10:55;;;;;;;9.45;3.15;;;;;;;11.54;85.44;101614.75;5044548;28;20091;-66
2022/09/25 04:13:24;;;;;;;7.10;3.35;;;;;;;11.59;84.80;101614.00;5039243;28;20029;-66
2022/09/25 04:15:50;;;;;;;5.50;2.92;;;;;;;11.61;85.14;101607.25;5042993;28;20068;-66
2022/09/25 04:18:16;;;;;;;8.43;3.20;;;;;;;11.53;85.28;101601.81;5040297;28;20057;-66
2022/09/25 04:20:41;;;;;;;7.78;3.20;;;;;;;11.59;85.08;101607.19;5026504;28;20048;-66
2022/09/25 04:23:06;;;;;;;7.07;3.45;;;;;;;11.56;84.81;101607.06;5047320;28;20671;-66
2022/09/25 04:25:32;;;;;;;12.25;3.13;;;;;;;11.52;85.10;101605.19;5040681;28;20037;-65
2022/09/25 04:27:57;;;;;;;7.05;3.38;;;;;;;11.54;85.19;101609.59;5041515;28;20029;-67
2022/09/25 04:30:28;;;;;;;7.15;3.22;;;;;;;11.57;85.25;101606.25;5041750;28;20032;-66
2022/09/25 04:35:38;;;;;;;9.73;3.53;;;;;;;11.46;84.96;101605.84;5039365;28;20171;-66
2022/09/25 04:38:03;;;;;;;6.63;3.72;;;;;;;11.47;84.61;101611.91;5042665;28;20104;-66
2022/09/25 04:40:31;;;;;;;7.88;3.10;;;;;;;11.43;84.45;101607.44;5046140;28;20029;-66
2022/09/25 04:43:03;;;;;;;5.75;3.10;;;;;;;11.39;84.45;101609.03;5039652;28;20049;-66
2022/09/25 04:45:29;;;;;;;7.43;3.60;;;;;;;11.35;84.51;101609.75;5042846;28;20029;-67
2022/09/25 04:47:58;;;;;;;9.10;3.70;;;;;;;11.40;85.03;101612.47;5042505;28;20416;-66
2022/09/25 04:50:25;;;;;;;6.68;3.60;;;;;;;11.36;84.98;101610.63;5044390;28;20075;-66
2022/09/25 04:52:51;;;;;;;6.28;3.67;;;;;;;11.36;85.25;101613.22;5040705;28;20108;-66
2022/09/25 04:55:23;;;;;;;7.95;3.70;;;;;;;11.38;85.27;101616.69;5042360;28;20484;-66
2022/09/25 04:57:55;;;;;;;7.93;3.70;;;;;;;11.33;84.83;101616.53;5040587;28;20483;-67
2022/09/25 05:00:23;;;;;;;5.68;3.33;;;;;;;11.27;85.46;101609.44;5038579;28;20511;-67
2022/09/25 05:02:48;;;;;;;6.38;3.45;;;;;;;11.28;85.17;101607.75;5041561;28;20044;-66
2022/09/25 05:05:14;;;;;;;8.27;3.88;;;;;;;11.26;85.04;101607.69;5039672;28;20033;-66
2022/09/25 05:07:49;;;;;;;7.97;3.85;;;;;;;11.23;84.45;101605.03;5039637;28;20134;-66
2022/09/25 05:10:15;;;;;;;7.10;3.47;;;;;;;11.25;84.48;101599.94;5048950;28;20032;-66
2022/09/25 05:12:41;;;;;;;7.95;3.65;;;;;;;11.18;84.05;101603.09;5039132;28;20036;-66
2022/09/25 05:15:08;;;;;;;10.05;4.00;;;;;;;11.09;84.30;101601.03;5043703;28;20028;-67
2022/09/25 05:17:33;;;;;;;6.53;3.47;;;;;;;11.08;85.11;101593.28;5040673;28;20078;-66
2022/09/25 05:19:59;;;;;;;5.85;3.90;;;;;;;11.06;84.98;101597.50;5040989;28;20052;-66
2022/09/25 05:22:24;;;;;;;8.65;4.20;;;;;;;11.09;85.02;101598.47;5041629;28;20514;-66
2022/09/25 05:24:51;;;;;;;8.68;4.45;;;;;;;11.08;85.17;101599.28;5039122;28;20396;-66
2022/09/25 05:27:16;;;;;;;6.90;4.40;;;;;;;11.14;85.16;101602.09;5022235;28;20029;-66
2022/09/25 05:29:42;;;;;;;8.98;4.68;;;;;;;11.11;85.20;101598.56;5041422;28;20034;-66
2022/09/25 05:32:07;;;;;;;9.13;4.45;;;;;;;11.09;85.28;101600.16;5043522;28;20053;-65
2022/09/25 05:34:33;;;;;;;10.05;4.47;;;;;;;11.10;85.41;101601.91;5043310;28;20451;-66
2022/09/25 05:36:59;;;;;;;11.38;4.72;;;;;;;11.07;85.66;101587.25;5038561;28;20036;-66
2022/09/25 05:39:24;;;;;;;7.88;4.40;;;;;;;11.04;85.43;101597.41;5038047;28;20150;-67
2022/09/25 05:41:50;;;;;;;8.43;4.50;;;;;;;10.98;85.37;101590.38;5038040;28;20024;-65
2022/09/25 05:44:15;;;;;;;8.57;4.97;;;;;;;11.00;85.53;101603.28;5039865;28;20024;-66
2022/09/25 05:46:41;;;;;;;6.90;4.93;;;;;;;10.94;85.58;101592.75;5038591;28;20068;-66
2022/09/25 05:49:06;;;;;;;9.48;4.68;;;;;;;10.95;85.71;101597.09;5043101;28;20028;-66
2022/09/25 05:51:32;;;;;;;6.47;4.40;;;;;;;10.91;85.86;101600.34;5019376;28;20037;-67
2022/09/25 05:53:59;;;;;;;10.57;4.80;;;;;;;10.89;86.24;101604.56;5041458;28;20083;-67
2022/09/25 05:56:24;;;;;;;7.65;4.25;;;;;;;10.87;86.37;101608.78;5041727;28;20811;-66
2022/09/25 05:58:51;;;;;;;7.30;4.65;;;;;;;10.87;86.44;101612.22;5041255;28;20037;-66
2022/09/25 06:01:18;;;;;;;7.88;4.65;;;;;;;10.94;86.56;101609.06;5040569;28;20029;-66
2022/09/25 06:03:43;;;;;;;10.43;4.68;;;;;;;10.89;86.90;101618.31;5038789;28;20206;-66
2022/09/25 06:06:09;;;;;;;9.23;4.80;;;;;;;10.91;87.29;101610.63;5042203;28;20539;-67
2022/09/25 06:08:34;;;;;;;7.97;4.10;;;;;;;10.98;87.26;101610.97;5040699;28;20685;-67
2022/09/25 06:11:01;;;;;;;6.40;4.30;;;;;;;10.98;87.48;101616.09;5043646;28;20455;-67
2022/09/25 06:13:28;;;;;;;9.73;4.47;;;;;;;10.93;88.15;101617.63;5041714;28;20082;-66
2022/09/25 06:15:53;;;;;;;8.75;4.32;;;;;;;11.00;88.03;101611.00;5046546;28;20017;-66
2022/09/25 06:18:20;;;;;;;7.90;4.30;;;;;;;11.00;87.65;101618.72;5036665;28;20048;-66
2022/09/25 06:20:46;;;;;;;8.52;4.50;;;;;;;10.99;87.99;101616.97;5043458;28;20029;-66
2022/09/25 06:23:12;;;;;;;8.50;4.60;;;;;;;11.04;88.19;101612.84;5043589;28;20103;-66
2022/09/25 06:25:38;;;;;;;8.07;4.28;;;;;;;11.03;88.29;101611.09;5044081;28;20215;-66
2022/09/25 06:28:04;;;;;;;11.63;4.93;;;;;;;11.08;88.20;101625.03;5034325;28;20029;-65
2022/09/25 06:30:33;;;;;;;7.45;4.30;;;;;;;11.16;88.36;101620.16;5038626;28;20466;-67
2022/09/25 06:33:00;;;;;;;12.20;4.70;;;;;;;11.11;88.65;101619.13;5036653;28;20029;-65
2022/09/25 06:35:28;;;;;;;7.57;4.60;;;;;;;11.16;88.83;101621.06;5047208;28;20024;-66
2022/09/25 06:38:00;;;;;;;9.02;4.65;;;;;;;11.23;88.92;101619.59;5036703;28;20033;-66
2022/09/25 06:40:28;;;;;;;7.05;4.70;;;;;;;11.21;88.72;101619.53;5019870;28;20034;-66
2022/09/25 06:42:56;;;;;;;8.27;4.65;;;;;;;11.30;88.63;101623.28;5041588;28;20029;-66
2022/09/25 06:45:21;;;;;;;9.88;4.68;;;;;;;11.26;89.22;101617.13;5024954;28;20055;-66
2022/09/25 06:47:47;;;;;;;8.23;4.63;;;;;;;11.29;88.77;101609.53;5033888;28;20472;-66
2022/09/25 06:50:13;;;;;;;6.88;4.35;;;;;;;11.30;89.34;101616.44;5038076;28;20132;-66
2022/09/25 06:52:43;;;;;;;9.73;4.90;;;;;;;11.35;89.30;101620.06;5043490;28;20055;-66
2022/09/25 06:55:09;;;;;;;7.50;4.70;;;;;;;11.35;89.71;101632.06;5042703;28;20336;-66
2022/09/25 06:57:36;;;;;;;7.60;4.68;;;;;;;11.38;89.61;101621.84;5048798;28;20039;-66
2022/09/25 07:00:04;;;;;;;8.20;4.43;;;;;;;11.44;89.93;101627.22;5037607;28;20041;-66
2022/09/25 07:05:16;;;;;;;7.82;4.90;;;;;;;11.47;90.41;101629.94;5023660;28;20075;-66
2022/09/25 07:07:43;;;;;;;8.98;4.43;;;;;;;11.57;90.37;101629.41;5038033;28;20217;-66
2022/09/25 07:10:08;;;;;;;10.43;4.53;;;;;;;11.58;90.01;101627.72;5052342;28;20043;-66
2022/09/25 07:12:34;;;;;;;6.55;4.22;;;;;;;11.64;90.34;101631.38;5042037;28;20536;-66
2022/09/25 07:14:59;;;;;;;8.95;4.30;;;;;;;11.73;90.09;101631.72;5039721;28;20034;-66
2022/09/25 07:17:24;;;;;;;9.73;4.20;;;;;;;11.77;90.21;101633.59;5042802;28;20028;-66
2022/09/25 07:19:50;;;;;;;6.32;4.00;;;;;;;11.84;90.31;101633.84;5038636;28;20525;-66
2022/09/25 07:22:15;;;;;;;6.30;4.13;;;;;;;11.91;90.12;101635.81;5045198;28;20368;-66
2022/09/25 07:24:40;;;;;;;9.23;4.10;;;;;;;12.04;90.03;101632.84;5038401;28;20033;-65
2022/09/25 07:27:06;;;;;;;7.25;3.80;;;;;;;12.17;89.52;101635.00;5048167;28;20031;-65
2022/09/25 07:29:31;;;;;;;8.20;3.78;;;;;;;12.19;89.77;101640.19;5041518;28;20112;-65
2022/09/25 07:31:56;;;;;;;6.20;3.72;;;;;;;12.32;89.14;101638.09;5026630;28;20121;-65
2022/09/25 07:34:22;;;;;;;8.82;3.88;;;;;;;12.41;89.10;101640.09;5046183;28;20106;-65
2022/09/25 07:36:47;;;;;;;6.10;3.25;;;;;;;12.49;88.08;101641.22;5043994;28;20056;-65
2022/09/25 07:39:13;;;;;;;5.97;3.05;;;;;;;12.64;87.39;101634.81;5042362;28;20060;-65
2022/09/25 07:41:38;;;;;;;5.20;2.97;;;;;;;12.73;87.23;101638.53;5027623;28;20507;-65
2022/09/25 07:44:04;;;;;;;6.38;3.15;;;;;;;12.89;87.00;101634.75;5049270;28;20123;-65
2022/09/25 07:46:30;;;;;;;9.75;3.30;;;;;;;13.01;86.04;101632.53;5036587;28;20116;-65
2022/09/25 07:48:55;;;;;;;5.10;2.90;;;;;;;13.10;85.77;101625.09;5025328;28;20028;-64
2022/09/25 07:51:21;;;;;;;5.00;2.80;;;;;;;13.29;85.94;101636.88;5044201;28;20026;-65
2022/09/25 07:53:47;;;;;;;5.50;3.05;;;;;;;13.41;85.34;101639.81;5041696;28;20048;-65
2022/09/25 07:56:13;;;;;;;5.68;2.70;;;;;;;13.47;85.12;101625.28;5045230;28;20028;-65
2022/09/25 07:58:39;;;;;;;7.05;2.83;;;;;;;13.63;84.69;101632.66;5037319;28;20046;-65
2022/09/25 08:01:07;;;;;;;10.23;2.78;;;;;;;13.77;84.79;101636.50;5042487;28;20128;-65
2022/09/25 08:03:33;;;;;;;9.30;2.95;;;;;;;13.75;83.48;101629.53;5042624;28;20029;-64
2022/09/25 08:06:10;;;;;;;5.20;2.53;;;;;;;13.95;83.67;101629.25;5041524;28;20074;-65
2022/09/25 08:08:36;;;;;;;5.68;2.30;;;;;;;14.18;82.82;101628.94;5035553;28;20064;-65
2022/09/25 08:11:07;;;;;;;9.02;2.38;;;;;;;14.35;82.10;101629.38;5045272;28;20387;-64
2022/09/25 08:13:34;;;;;;;7.15;2.40;;;;;;;14.56;81.80;101626.44;5037976;28;20043;-65
2022/09/25 08:16:26;;;;;;;4.88;2.10;;;;;;;14.83;81.67;101626.25;5040747;28;20033;-65
2022/09/25 08:18:51;;;;;;;5.38;1.90;;;;;;;14.98;79.82;101626.56;5039682;28;20056;-66
2022/09/25 08:21:19;;;;;;;5.57;1.80;;;;;;;15.13;78.83;101623.44;5044946;28;20028;-66
2022/09/25 08:23:48;;;;;;;4.78;2.00;;;;;;;15.29;77.72;101630.72;5042792;28;20039;-65
2022/09/25 08:26:15;;;;;;;6.50;2.00;;;;;;;15.38;76.72;101617.06;5038491;28;20083;-66
2022/09/25 08:28:40;;;;;;;3.92;1.48;;;;;;;15.44;76.10;101615.47;5046376;28;20074;-65
2022/09/25 08:31:07;;;;;;;7.22;1.70;;;;;;;15.55;75.72;101616.56;5046708;28;20032;-65
2022/09/25 08:33:33;;;;;;;7.18;1.80;;;;;;;15.57;75.37;101620.03;5042890;28;20541;-65
2022/09/25 08:36:04;;;;;;;8.75;2.45;;;;;;;15.63;75.44;101628.81;5044065;28;20041;-65
2022/09/25 08:38:32;;;;;;;6.68;1.50;;;;;;;15.61;73.89;101622.72;5036584;28;20509;-64
2022/09/25 08:41:06;;;;;;;4.18;1.50;;;;;;;15.72;74.79;101624.69;5033099;28;20480;-65
2022/09/25 08:43:36;;;;;;;6.47;1.70;;;;;;;15.73;74.50;101625.56;5039405;28;20036;-65
2022/09/25 08:49:01;;;;;;;7.75;1.50;;;;;;;15.80;74.87;101624.84;5033306;28;20044;-64
2022/09/25 08:51:37;;;;;;;6.63;1.50;;;;;;;15.87;74.37;101625.81;5038006;28;20025;-64
2022/09/25 08:54:04;;;;;;;5.10;1.20;;;;;;;15.89;73.42;101630.19;5050391;28;20028;-65
2022/09/25 08:56:31;;;;;;;6.82;1.30;;;;;;;15.89;71.76;101622.41;5038119;28;20032;-65
2022/09/25 08:59:29;;;;;;;5.70;1.08;;;;;;;15.96;73.06;101624.28;5037192;28;20115;-65
2022/09/25 09:01:58;;;;;;;5.00;1.23;;;;;;;16.03;73.03;101623.53;5036870;28;20074;-64
2022/09/25 09:04:31;;;;;;;5.22;1.15;;;;;;;16.04;72.23;101633.06;5042293;28;20033;-65
2022/09/25 09:07:39;;;;;;;7.32;1.30;;;;;;;16.11;72.81;101633.19;5035233;28;20032;-65
2022/09/25 09:10:34;;;;;;;8.07;1.13;;;;;;;16.16;71.67;101636.72;5020385;28;20422;-65
2022/09/25 09:13:03;;;;;;;8.52;1.55;;;;;;;16.14;71.00;101625.44;5035280;28;20369;-64
2022/09/25 09:15:41;;;;;;;;;;;;;;;16.27;73.17;101623.09;5033772;28;20025;-65
2022/09/25 09:18:20;;;;;;;5.07;1.15;;;;;;;16.24;70.01;101627.34;5033517;28;19913;-68
2022/09/25 09:20:50;;;;;;;5.35;1.02;;;;;;;16.23;69.38;101615.22;5035646;28;20063;-67
2022/09/25 09:23:20;;;;;;;7.25;1.05;;;;;;;16.25;69.12;101616.97;5034027;28;20038;-68
2022/09/25 09:25:57;;;;;;;7.10;1.27;;;;;;;16.26;68.86;101613.56;5034527;28;20052;-68
2022/09/25 09:28:47;;;;;;;8.15;1.90;;;;;;;16.24;69.21;101614.38;5029893;28;20118;-67
2022/09/25 09:31:31;;;;;;;5.90;1.20;;;;;;;16.25;70.13;101613.50;5021449;28;20033;-68
2022/09/25 09:34:35;;;;;;;6.65;1.40;;;;;;;16.30;70.12;101610.16;5034602;28;20029;-69
2022/09/25 09:37:32;;;;;;;7.63;1.20;;;;;;;16.38;68.85;101606.81;5000092;28;20051;-68
2022/09/25 09:39:57;;;;;;;5.60;1.02;;;;;;;16.35;67.15;101607.63;5034129;28;20432;-68
2022/09/25 09:42:43;;;;;;;5.70;0.90;;;;;;;16.45;67.75;101608.66;5034433;28;20036;-68
2022/09/25 09:45:27;;;;;;;5.65;1.30;;;;;;;16.53;67.89;101609.66;5039735;28;20033;-68
2022/09/25 09:48:08;;;;;;;6.60;0.82;;;;;;;16.62;67.08;101612.38;5034479;28;20502;-67
2022/09/25 09:50:52;;;;;;;4.43;0.98;;;;;;;16.68;67.21;101612.47;5035844;28;20114;-68
2022/09/25 09:53:30;;;;;;;4.53;0.80;;;;;;;16.74;65.81;101602.19;5035676;28;20021;-67
2022/09/25 09:56:03;;;;;;;5.78;0.80;;;;;;;16.75;63.20;101603.97;5037145;28;20665;-70
2022/09/25 09:58:37;;;;;;;3.42;0.70;;;;;;;16.81;62.79;101603.19;5031993;28;20057;-67
2022/09/25 10:01:04;;;;;;;4.82;0.70;;;;;;;16.80;61.16;101593.63;5035119;28;20757;-67
2022/09/25 10:03:36;;;;;;;6.20;0.95;;;;;;;16.84;61.59;101598.03;5038744;28;20114;-67
2022/09/25 10:06:07;;;;;;;5.35;1.00;;;;;;;16.94;60.07;101601.63;5030860;28;20078;-68
2022/09/25 10:08:34;;;;;;;5.05;0.90;;;;;;;17.03;60.07;101596.53;5019591;28;20032;-69
2022/09/25 10:11:08;;;;;;;4.28;0.95;;;;;;;17.05;60.03;101592.25;5033203;28;20045;-70
2022/09/25 10:13:38;;;;;;;6.82;0.90;;;;;;;17.11;60.13;101585.41;5034658;28;20029;-70
2022/09/25 10:16:11;;;;;;;4.95;0.82;;;;;;;17.16;60.87;101588.91;5017041;28;20075;-74
2022/09/25 10:18:59;;;;;;;5.35;0.93;;;;;;;17.20;60.66;101592.44;5036738;28;20089;-74
2022/09/25 10:21:30;;;;;;;4.10;0.95;;;;;;;17.10;59.99;101588.84;5040261;28;20128;-74
2022/09/25 10:24:01;;;;;;;4.63;0.80;;;;;;;17.10;59.15;101598.38;5021943;28;20025;-75
2022/09/25 10:26:38;;;;;;;5.85;0.90;;;;;;;17.02;60.65;101587.88;5036694;28;20028;-75
2022/09/25 10:29:25;;;;;;;4.90;0.73;;;;;;;17.02;60.78;101590.47;5036304;28;20036;-77
2022/09/25 10:32:02;;;;;;;3.78;0.80;;;;;;;17.06;59.51;101588.81;5037583;28;20020;-75
2022/09/25 10:34:30;;;;;;;4.50;0.82;;;;;;;17.17;58.81;101589.81;5035348;28;20130;-74
2022/09/25 10:36:55;;;;;;;3.50;0.88;;;;;;;17.28;57.44;101588.19;5040053;28;20087;-74
2022/09/25 10:39:34;;;;;;;2.03;0.77;;;;;;;17.37;58.73;101584.84;5019943;28;20399;-74
2022/09/25 10:42:06;;;;;;;4.28;1.02;;;;;;;17.46;57.17;101578.88;5016605;28;20874;-74
2022/09/25 10:44:37;;;;;;;3.25;0.50;;;;;;;17.64;56.80;101582.53;5039020;28;20028;-75
2022/09/25 10:50:23;;;;;;;4.22;0.77;;;;;;;18.26;56.54;101588.34;5035750;28;20043;-74
2022/09/25 10:52:57;;;;;;;4.07;0.73;;;;;;;18.55;54.80;101581.63;5037927;28;20029;-71
2022/09/25 10:55:33;;;;;;;2.83;0.65;;;;;;;18.73;53.66;101586.97;5037782;28;20030;-71
2022/09/25 10:58:05;;;;;;;5.25;0.70;;;;;;;18.78;51.51;101586.16;5037844;28;20073;-71
2022/09/25 11:00:36;;;;;;;3.83;0.65;;;;;;;19.07;52.02;101573.28;5040179;28;20103;-72
2022/09/25 11:03:04;;;;;;;4.00;0.63;;;;;;;19.38;50.88;101569.91;5036591;28;20122;-72
2022/09/25 11:05:35;;;;;;;3.65;0.70;;;;;;;19.72;51.20;101577.88;5040769;28;20033;-70
2022/09/25 11:08:06;;;;;;;2.53;0.60;;;;;;;19.82;50.87;101571.75;5043652;28;20052;-71
2022/09/25 11:10:46;;;;;;;4.90;0.60;;;;;;;20.07;49.50;101572.66;5044792;28;20044;-71
2022/09/25 11:13:23;;;;;;;2.17;0.65;;;;;;;20.18;48.10;101576.13;5041434;28;20336;-72
2022/09/25 11:15:52;;;;;;;5.25;0.70;;;;;;;20.25;46.68;101572.66;5036984;28;20032;-71
2022/09/25 11:18:43;;;;;;;5.63;0.75;;;;;;;20.50;48.44;101573.53;5044051;28;20028;-71
2022/09/25 11:21:32;;;;;;;3.28;0.63;;;;;;;20.97;47.83;101571.66;5039111;28;20036;-71
2022/09/25 11:24:00;;;;;;;3.65;0.55;;;;;;;21.30;45.83;101576.81;5038142;28;20029;-71
2022/09/25 11:26:33;;;;;;;2.60;0.60;;;;;;;21.31;45.06;101570.69;5039785;28;20495;-71
2022/09/25 11:29:04;;;;;;;1.95;0.50;;;;;;;21.53;46.40;101566.19;5038349;28;20029;-71
2022/09/25 11:32:00;;;;;;;3.58;0.70;;;;;;;21.83;46.49;101559.88;5043940;28;20085;-71
2022/09/25 11:34:49;;;;;;;3.40;0.75;;;;;;;21.64;45.18;101563.50;5030921;28;20117;-71
2022/09/25 11:37:29;;;;;;;;;;;;;;;21.52;48.02;101556.59;5034142;28;20029;-71
2022/09/25 11:43:19;;;;;;;3.40;0.63;;;;;;;20.39;46.65;101557.00;5040534;28;20044;-71
2022/09/25 11:45:48;;;;;;;2.15;0.60;;;;;;;19.83;44.58;101558.72;5043286;28;20044;-71
2022/09/25 11:48:33;;;;;;;2.63;0.40;;;;;;;19.71;45.73;101556.09;5035502;28;20054;-71
2022/09/25 11:51:13;;;;;;;1.83;0.40;;;;;;;20.02;45.86;101556.09;5038888;28;20065;-71
2022/09/25 11:53:53;;;;;;;3.75;0.57;;;;;;;20.38;45.22;101552.59;5016659;28;20032;-70
2022/09/25 11:56:59;;;;;;;2.88;0.63;;;;;;;20.75;45.48;101536.88;5023476;28;20033;-71
2022/09/25 11:59:30;;;;;;;2.08;0.50;;;;;;;20.70;43.93;101536.91;5036572;28;20090;-71
2022/09/25 12:02:12;;;;;;;2.65;0.60;;;;;;;20.60;44.52;101537.81;5037137;28;20326;-71
2022/09/25 12:04:54;;;;;;;1.88;0.70;;;;;;;20.32;45.43;101535.22;5037210;28;20067;-71